• Join FlightAware (Why Join?)
  • Login
  • US Flag 
08:48AM EDT


 

Airport Tracker/Info


-or-


 

Live Flight TrackerFlight Track Log ✈ N335R ✈ 21-Mar-2014 ✈ KCSG - KNPA

Flight Track Log - Related Links

Times and Time Zones

All times are in EDT time to prevent confusion due to time zone crossing. See the N335R flight status page for this flight to view local times or setup timezone preferences in your user account.

Time Position Orientation Groundspeed Altitude Reporting Facility
EDT Latitude Longitude Course Direction KTS MPH feet Rate Location/Type
02:30PM 32.5333 -84.9167 40° Northeast 97 112 1,200  Level Atlanta TRACON
02:31PM 32.5500 -84.9000 40° Northeast 115 132 2,100 720 Climbing Atlanta TRACON
02:33PM 32.5167 -84.9500 224° Southwest 121 139 3,500 720 Climbing Atlanta TRACON
02:34PM 32.5000 -84.9667 220° Southwest 109 125 4,300 660 Climbing Atlanta TRACON
02:35PM 32.4667 -84.9833 203° Southwest 115 132 4,800 540 Climbing Atlanta TRACON
02:36PM 32.4500 -85.0167 239° Southwest 113 130 5,400 480 Climbing Atlanta TRACON
02:37PM 32.4167 -85.0500 220° Southwest 119 137 5,900 240 Climbing Atlanta TRACON
02:38PM 32.4000 -85.0667 220° Southwest 136 157 6,000  Climbing Atlanta TRACON
02:39PM 32.3667 -85.1000 220° Southwest 143 165 6,000 -60 Level Atlanta TRACON
02:40PM 32.3333 -85.1333 220° Southwest 146 168 5,900 -60 Descending Atlanta TRACON
02:41PM 32.3167 -85.1667 239° Southwest 148 170 5,900  Level Atlanta TRACON
02:42PM 32.2833 -85.2000 220° Southwest 149 171 6,000  Climbing Atlanta TRACON
02:43PM 32.2500 -85.2333 220° Southwest 150 173 5,900 -60 Descending Atlanta TRACON
02:44PM 32.2167 -85.2667 220° Southwest 150 173 5,900  Level Atlanta TRACON
02:45PM 32.2000 -85.3167 249° West 149 171 6,000  Climbing Atlanta TRACON
02:46PM 32.1667 -85.3500 220° Southwest 152 175 5,900 -120 Descending Atlanta TRACON
02:47PM 32.1333 -85.3667 203° Southwest 153 176 5,800  Descending Atlanta TRACON
02:48PM 32.1000 -85.4000 220° Southwest 146 168 6,000 180 Climbing Atlanta TRACON
02:49PM 32.0806 -85.4253 228° Southwest 146 168 6,100  Climbing Jacksonville Center
02:50PM 32.0444 -85.4686 225° Southwest 156 180 6,100 -60 Level Jacksonville Center
02:51PM 32.0122 -85.5019 221° Southwest 157 181 6,000 -60 Descending Jacksonville Center
02:52PM 31.9822 -85.5428 229° Southwest 155 178 6,000  Level Jacksonville Center
02:53PM 31.9481 -85.5808 223° Southwest 153 176 6,000  Level Jacksonville Center
02:54PM 31.9097 -85.6214 222° Southwest 159 183 6,100  Climbing Jacksonville Center
02:55PM 31.8819 -85.6500 221° Southwest 158 182 6,000 -60 Descending Jacksonville Center
02:56PM 31.8436 -85.6856 218° Southwest 159 183 6,000  Level Jacksonville Center
02:57PM 31.8114 -85.7261 227° Southwest 160 184 6,100  Climbing Jacksonville Center
02:58PM 31.7856 -85.7544 223° Southwest 157 181 6,000 -60 Descending Jacksonville Center
02:59PM 31.7533 -85.7950 227° Southwest 160 184 6,000  Level Jacksonville Center
03:00PM 31.7214 -85.8283 222° Southwest 159 183 6,000 -60 Level Jacksonville Center
03:01PM 31.6892 -85.8664 225° Southwest 159 183 5,900  Descending Jacksonville Center
03:02PM 31.6589 -85.9044 227° Southwest 163 188 6,000 120 Climbing Jacksonville Center
03:03PM 31.6289 -85.9400 225° Southwest 152 175 6,200  Climbing Jacksonville Center
03:04PM 31.5861 -85.9800 219° Southwest 161 185 6,100 -60 Descending Jacksonville Center
03:05PM 31.5558 -86.0206 229° Southwest 161 185 6,100  Level Jacksonville Center
03:06PM 31.5194 -86.0558 220° Southwest 161 185 6,100  Level Jacksonville Center
03:07PM 31.4894 -86.0864 221° Southwest 160 184 6,100  Level Jacksonville Center
03:08PM 31.4572 -86.1219 223° Southwest 161 185 6,100  Level Jacksonville Center
03:09PM 31.4250 -86.1572 223° Southwest 158 182 6,100  Level Jacksonville Center
03:10PM 31.3972 -86.1903 225° Southwest 158 182 6,100 -60 Level Jacksonville Center
03:11PM 31.3650 -86.2233 221° Southwest 159 183 6,000 -60 Descending Jacksonville Center
03:12PM 31.3261 -86.2658 223° Southwest 160 184 6,000  Level Jacksonville Center
03:20PM 31.0700 -86.5500 222° Southwest 154 177 6,000  Level Jacksonville Center
03:21PM 31.0854 -86.5176 222° Southwest  Level FlightAware Approximate
03:21PM 31.0461 -86.5781 225° Southwest 157 181 6,000  Level Jacksonville Center
03:22PM 31.0562 -86.5486 222° Southwest  Level FlightAware Approximate
03:22PM 31.0161 -86.6061 219° Southwest 157 181 6,000  Level Jacksonville Center
03:23PM 31.0269 -86.5796 222° Southwest  Level FlightAware Approximate
03:23PM 30.9858 -86.6436 227° Southwest 160 184 6,000  Level Jacksonville Center
03:24PM 30.9977 -86.6106 222° Southwest  Level FlightAware Approximate
03:24PM 30.9536 -86.6764 221° Southwest 158 182 6,000  Level Jacksonville Center
03:25PM 30.9684 -86.6416 222° Southwest  Level FlightAware Approximate
03:25PM 30.9169 -86.7158 223° Southwest 161 185 6,000  Level Jacksonville Center
03:26PM 30.9391 -86.6726 222° Southwest  Level FlightAware Approximate
03:26PM 30.8867 -86.7486 223° Southwest 159 183 6,000  Level Jacksonville Center
03:27PM 30.8522 -86.7833 221° Southwest 161 185 6,000  Level Jacksonville Center
03:28PM 30.8153 -86.8256 224° Southwest 161 185 6,000 -60 Level Jacksonville Center
03:29PM 30.7831 -86.8603 223° Southwest 163 188 5,900  Descending Jacksonville Center
03:30PM 30.7506 -86.8928 221° Southwest 161 185 6,000  Climbing Jacksonville Center
03:31PM 30.7183 -86.9278 223° Southwest 163 188 6,000  Level Jacksonville Center
03:32PM 30.6836 -86.9697 226° Southwest 165 190 6,000  Level Jacksonville Center
03:33PM 30.6511 -87.0022 221° Southwest 165 190 6,000  Level Jacksonville Center
03:34PM 30.6308 -87.0519 245° Southwest 171 197 6,000 -180 Level Jacksonville Center
03:35PM 30.6267 -87.1097 265° West 174 200 5,700 -480 Descending Jacksonville Center
03:36PM 30.6169 -87.1575 257° West 179 206 5,100 -720 Descending Jacksonville Center
03:37PM 30.5961 -87.2169 248° West 180 207 4,300 -600 Descending Jacksonville Center
03:38PM 30.5675 -87.2614 233° Southwest 180 207 3,900 -240 Descending Jacksonville Center
03:39PM 30.5369 -87.2986 226° Southwest 158 182 3,900  Level Jacksonville Center
03:40PM 30.5125 -87.3386 235° Southwest 155 178 3,900  Level Jacksonville Center
03:41PM 30.4861 -87.3783 232° Southwest 151 174 3,900 -120 Level Jacksonville Center
03:43PM 30.4511 -87.4225 227° Southwest 155 178 3,700 -360 Descending Jacksonville Center
03:43PM 30.4203 -87.4089 159° South 149 171 3,200 -900 Descending Jacksonville Center
03:45PM 30.3817 -87.3831 150° Southeast 128 147 2,000 -1,080 Descending Jacksonville Center
03:46PM 30.3528 -87.3672 155° Southeast 124 143 1,000 -1,140 Descending Jacksonville Center
03:48PM 30.3500 -87.3167 90° East  Level FlightAware Approximate
03:55PM 30.3533 -87.3180 90° East  Level Estimated